sensor_id;sensor_type;location;lat;lon;timestamp;temperature;humidity
2897;DHT22;1458;49.728;9.228;2023-02-11T00:00:45;0.60;99.90
2897;DHT22;1458;49.728;9.228;2023-02-11T00:03:12;0.60;99.90
2897;DHT22;1458;49.728;9.228;2023-02-11T00:05:40;0.50;99.90
2897;DHT22;1458;49.728;9.228;2023-02-11T00:08:07;0.30;99.90
2897;DHT22;1458;49.728;9.228;2023-02-11T00:10:35;0.20;99.90
2897;DHT22;1458;49.728;9.228;2023-02-11T00:13:02;0.20;99.90
2897;DHT22;1458;49.728;9.228;2023-02-11T00:15:31;0.20;99.90
2897;DHT22;1458;49.728;9.228;2023-02-11T00:17:58;0.30;99.90
2897;DHT22;1458;49.728;9.228;2023-02-11T00:20:25;0.40;99.90
2897;DHT22;1458;49.728;9.228;2023-02-11T00:22:53;0.20;99.90
2897;DHT22;1458;49.728;9.228;2023-02-11T00:25:20;0.00;99.90
2897;DHT22;1458;49.728;9.228;2023-02-11T00:27:47;0.00;99.90
2897;DHT22;1458;49.728;9.228;2023-02-11T00:30:15;-0.10;99.90
2897;DHT22;1458;49.728;9.228;2023-02-11T00:32:44;-0.10;99.90
2897;DHT22;1458;49.728;9.228;2023-02-11T00:35:11;-0.10;99.90
2897;DHT22;1458;49.728;9.228;2023-02-11T00:37:39;0.00;99.90
2897;DHT22;1458;49.728;9.228;2023-02-11T00:40:09;-0.10;99.90
2897;DHT22;1458;49.728;9.228;2023-02-11T00:42:37;0.10;99.90
2897;DHT22;1458;49.728;9.228;2023-02-11T00:45:05;0.30;99.90
2897;DHT22;1458;49.728;9.228;2023-02-11T00:47:35;0.30;99.90
2897;DHT22;1458;49.728;9.228;2023-02-11T00:50:05;0.20;99.90
2897;DHT22;1458;49.728;9.228;2023-02-11T00:52:33;0.30;99.90
2897;DHT22;1458;49.728;9.228;2023-02-11T00:55:01;0.40;99.90
2897;DHT22;1458;49.728;9.228;2023-02-11T00:57:29;0.70;99.90
2897;DHT22;1458;49.728;9.228;2023-02-11T00:59:56;0.90;99.90
2897;DHT22;1458;49.728;9.228;2023-02-11T01:02:23;1.00;99.90
2897;DHT22;1458;49.728;9.228;2023-02-11T01:04:51;0.90;99.90
2897;DHT22;1458;49.728;9.228;2023-02-11T01:07:19;0.90;99.90
2897;DHT22;1458;49.728;9.228;2023-02-11T01:09:47;0.90;99.90
2897;DHT22;1458;49.728;9.228;2023-02-11T01:12:14;0.90;99.90
2897;DHT22;1458;49.728;9.228;2023-02-11T01:14:42;1.00;99.90
2897;DHT22;1458;49.728;9.228;2023-02-11T01:17:10;1.20;99.90
2897;DHT22;1458;49.728;9.228;2023-02-11T01:19:37;1.60;99.90
2897;DHT22;1458;49.728;9.228;2023-02-11T01:22:05;1.90;99.90
2897;DHT22;1458;49.728;9.228;2023-02-11T01:24:34;2.10;99.90
2897;DHT22;1458;49.728;9.228;2023-02-11T01:27:02;2.20;99.90
2897;DHT22;1458;49.728;9.228;2023-02-11T01:29:29;2.30;99.90
2897;DHT22;1458;49.728;9.228;2023-02-11T01:31:56;2.40;99.90
2897;DHT22;1458;49.728;9.228;2023-02-11T01:34:24;2.40;99.90
2897;DHT22;1458;49.728;9.228;2023-02-11T01:36:56;2.40;99.90
2897;DHT22;1458;49.728;9.228;2023-02-11T01:39:24;2.30;99.90
2897;DHT22;1458;49.728;9.228;2023-02-11T01:41:53;2.30;99.90
2897;DHT22;1458;49.728;9.228;2023-02-11T01:44:23;2.30;99.90
2897;DHT22;1458;49.728;9.228;2023-02-11T01:46:51;2.20;99.90
2897;DHT22;1458;49.728;9.228;2023-02-11T01:49:25;2.10;99.90
2897;DHT22;1458;49.728;9.228;2023-02-11T01:51:59;2.30;99.90
2897;DHT22;1458;49.728;9.228;2023-02-11T01:54:31;2.30;99.90
2897;DHT22;1458;49.728;9.228;2023-02-11T01:57:21;2.40;99.90
2897;DHT22;1458;49.728;9.228;2023-02-11T02:00:06;2.30;99.90
2897;DHT22;1458;49.728;9.228;2023-02-11T02:02:49;2.10;99.90
2897;DHT22;1458;49.728;9.228;2023-02-11T02:05:23;2.00;99.90
2897;DHT22;1458;49.728;9.228;2023-02-11T02:07:59;1.90;99.90
2897;DHT22;1458;49.728;9.228;2023-02-11T02:10:30;1.70;99.90
2897;DHT22;1458;49.728;9.228;2023-02-11T02:13:01;1.50;99.90
2897;DHT22;1458;49.728;9.228;2023-02-11T02:15:31;1.40;99.90
2897;DHT22;1458;49.728;9.228;2023-02-11T02:18:22;1.30;99.90
2897;DHT22;1458;49.728;9.228;2023-02-11T02:21:36;1.20;99.90
2897;DHT22;1458;49.728;9.228;2023-02-11T02:27:50;1.20;99.90
2897;DHT22;1458;49.728;9.228;2023-02-11T02:33:41;1.40;99.90
2897;DHT22;1458;49.728;9.228;2023-02-11T02:36:17;1.20;99.90
2897;DHT22;1458;49.728;9.228;2023-02-11T02:38:52;1.20;99.90
2897;DHT22;1458;49.728;9.228;2023-02-11T02:41:25;1.00;99.90
2897;DHT22;1458;49.728;9.228;2023-02-11T02:43:55;1.30;99.90
2897;DHT22;1458;49.728;9.228;2023-02-11T02:46:24;1.10;99.90
2897;DHT22;1458;49.728;9.228;2023-02-11T02:48:54;1.00;99.90
2897;DHT22;1458;49.728;9.228;2023-02-11T02:51:50;1.20;99.90
2897;DHT22;1458;49.728;9.228;2023-02-11T02:55:11;1.20;99.90
2897;DHT22;1458;49.728;9.228;2023-02-11T02:58:21;1.40;99.90
2897;DHT22;1458;49.728;9.228;2023-02-11T03:01:06;1.50;99.90
2897;DHT22;1458;49.728;9.228;2023-02-11T03:03:42;1.70;99.90
2897;DHT22;1458;49.728;9.228;2023-02-11T03:06:22;1.70;99.90
2897;DHT22;1458;49.728;9.228;2023-02-11T03:08:57;1.70;99.90
2897;DHT22;1458;49.728;9.228;2023-02-11T03:11:28;1.80;99.90
2897;DHT22;1458;49.728;9.228;2023-02-11T03:13:56;1.70;99.90
2897;DHT22;1458;49.728;9.228;2023-02-11T03:16:26;1.70;99.90
2897;DHT22;1458;49.728;9.228;2023-02-11T03:19:00;1.60;99.90
2897;DHT22;1458;49.728;9.228;2023-02-11T03:21:34;1.50;99.90
2897;DHT22;1458;49.728;9.228;2023-02-11T03:24:07;1.60;99.90
2897;DHT22;1458;49.728;9.228;2023-02-11T03:26:42;1.70;99.90
2897;DHT22;1458;49.728;9.228;2023-02-11T03:29:17;1.80;99.90
2897;DHT22;1458;49.728;9.228;2023-02-11T03:31:55;1.70;99.90
2897;DHT22;1458;49.728;9.228;2023-02-11T03:34:29;1.60;99.90
2897;DHT22;1458;49.728;9.228;2023-02-11T03:37:07;1.50;99.90
2897;DHT22;1458;49.728;9.228;2023-02-11T03:39:38;1.40;99.90
2897;DHT22;1458;49.728;9.228;2023-02-11T03:42:10;1.40;99.90
2897;DHT22;1458;49.728;9.228;2023-02-11T03:44:41;1.40;99.90
2897;DHT22;1458;49.728;9.228;2023-02-11T03:47:12;1.50;99.90
2897;DHT22;1458;49.728;9.228;2023-02-11T03:49:42;1.70;99.90
2897;DHT22;1458;49.728;9.228;2023-02-11T03:52:13;1.60;99.90
2897;DHT22;1458;49.728;9.228;2023-02-11T03:54:42;1.70;99.90
2897;DHT22;1458;49.728;9.228;2023-02-11T03:57:11;1.90;99.90
2897;DHT22;1458;49.728;9.228;2023-02-11T03:59:53;1.90;99.90
2897;DHT22;1458;49.728;9.228;2023-02-11T04:02:23;1.60;99.90
2897;DHT22;1458;49.728;9.228;2023-02-11T04:05:13;1.30;99.90
2897;DHT22;1458;49.728;9.228;2023-02-11T04:07:50;1.30;99.90
2897;DHT22;1458;49.728;9.228;2023-02-11T04:10:18;1.10;99.90
2897;DHT22;1458;49.728;9.228;2023-02-11T04:12:45;1.00;99.90
2897;DHT22;1458;49.728;9.228;2023-02-11T04:15:13;1.10;99.90
2897;DHT22;1458;49.728;9.228;2023-02-11T04:17:40;1.00;99.90
2897;DHT22;1458;49.728;9.228;2023-02-11T04:20:09;1.00;99.90
2897;DHT22;1458;49.728;9.228;2023-02-11T04:22:37;1.10;99.90
2897;DHT22;1458;49.728;9.228;2023-02-11T04:25:07;0.90;99.90
2897;DHT22;1458;49.728;9.228;2023-02-11T04:27:36;0.80;99.90
2897;DHT22;1458;49.728;9.228;2023-02-11T04:30:04;1.00;99.90
2897;DHT22;1458;49.728;9.228;2023-02-11T04:32:32;1.00;99.90
2897;DHT22;1458;49.728;9.228;2023-02-11T04:35:00;1.10;99.90
2897;DHT22;1458;49.728;9.228;2023-02-11T04:37:27;1.10;99.90
2897;DHT22;1458;49.728;9.228;2023-02-11T04:39:55;1.00;99.90
2897;DHT22;1458;49.728;9.228;2023-02-11T04:42:23;0.80;99.90
2897;DHT22;1458;49.728;9.228;2023-02-11T04:44:51;0.70;99.90
2897;DHT22;1458;49.728;9.228;2023-02-11T04:47:18;0.80;99.90
2897;DHT22;1458;49.728;9.228;2023-02-11T04:49:45;0.90;99.90
2897;DHT22;1458;49.728;9.228;2023-02-11T04:52:13;0.90;99.90
2897;DHT22;1458;49.728;9.228;2023-02-11T04:54:40;0.90;99.90
2897;DHT22;1458;49.728;9.228;2023-02-11T04:57:08;0.90;99.90
2897;DHT22;1458;49.728;9.228;2023-02-11T04:59:36;0.80;99.90
2897;DHT22;1458;49.728;9.228;2023-02-11T05:02:26;0.70;99.90
2897;DHT22;1458;49.728;9.228;2023-02-11T05:04:53;0.70;99.90
2897;DHT22;1458;49.728;9.228;2023-02-11T05:07:20;0.70;99.90
2897;DHT22;1458;49.728;9.228;2023-02-11T05:09:48;0.50;99.90
2897;DHT22;1458;49.728;9.228;2023-02-11T05:12:15;0.50;99.90
2897;DHT22;1458;49.728;9.228;2023-02-11T05:14:44;0.70;99.90
2897;DHT22;1458;49.728;9.228;2023-02-11T05:17:11;0.60;99.90
2897;DHT22;1458;49.728;9.228;2023-02-11T05:19:40;0.60;99.90
2897;DHT22;1458;49.728;9.228;2023-02-11T05:22:08;0.60;99.90
2897;DHT22;1458;49.728;9.228;2023-02-11T05:25:50;0.70;99.90
2897;DHT22;1458;49.728;9.228;2023-02-11T05:28:14;0.80;99.90
2897;DHT22;1458;49.728;9.228;2023-02-11T05:30:42;0.70;99.90
2897;DHT22;1458;49.728;9.228;2023-02-11T05:33:12;0.60;99.90
2897;DHT22;1458;49.728;9.228;2023-02-11T05:35:39;0.60;99.90
2897;DHT22;1458;49.728;9.228;2023-02-11T05:38:06;0.60;99.90
2897;DHT22;1458;49.728;9.228;2023-02-11T05:40:34;0.70;99.90
2897;DHT22;1458;49.728;9.228;2023-02-11T05:43:01;0.70;99.90
2897;DHT22;1458;49.728;9.228;2023-02-11T05:45:29;0.70;99.90
2897;DHT22;1458;49.728;9.228;2023-02-11T05:47:57;0.60;99.90
2897;DHT22;1458;49.728;9.228;2023-02-11T05:50:25;0.60;99.90
2897;DHT22;1458;49.728;9.228;2023-02-11T05:52:52;0.50;99.90
2897;DHT22;1458;49.728;9.228;2023-02-11T05:55:20;0.60;99.90
2897;DHT22;1458;49.728;9.228;2023-02-11T05:57:47;0.50;99.90
2897;DHT22;1458;49.728;9.228;2023-02-11T06:00:15;0.40;99.90
2897;DHT22;1458;49.728;9.228;2023-02-11T06:02:43;0.50;99.90
2897;DHT22;1458;49.728;9.228;2023-02-11T06:05:11;0.50;99.90
2897;DHT22;1458;49.728;9.228;2023-02-11T06:07:39;0.30;99.90
2897;DHT22;1458;49.728;9.228;2023-02-11T06:10:07;0.30;99.90
2897;DHT22;1458;49.728;9.228;2023-02-11T06:12:35;0.20;99.90
2897;DHT22;1458;49.728;9.228;2023-02-11T06:15:04;0.60;99.90
2897;DHT22;1458;49.728;9.228;2023-02-11T06:17:32;0.40;99.90
2897;DHT22;1458;49.728;9.228;2023-02-11T06:20:02;0.40;99.90
2897;DHT22;1458;49.728;9.228;2023-02-11T06:22:32;0.40;99.90
2897;DHT22;1458;49.728;9.228;2023-02-11T06:25:00;0.30;99.90
2897;DHT22;1458;49.728;9.228;2023-02-11T06:27:27;0.30;99.90
2897;DHT22;1458;49.728;9.228;2023-02-11T06:29:55;0.20;99.90
2897;DHT22;1458;49.728;9.228;2023-02-11T06:32:22;0.10;99.90
2897;DHT22;1458;49.728;9.228;2023-02-11T06:34:49;0.10;99.90
2897;DHT22;1458;49.728;9.228;2023-02-11T06:37:17;0.00;99.90
2897;DHT22;1458;49.728;9.228;2023-02-11T06:39:45;0.10;99.90
2897;DHT22;1458;49.728;9.228;2023-02-11T06:42:13;0.30;99.90
2897;DHT22;1458;49.728;9.228;2023-02-11T06:44:40;0.40;99.90
2897;DHT22;1458;49.728;9.228;2023-02-11T06:47:09;0.50;99.90
2897;DHT22;1458;49.728;9.228;2023-02-11T06:49:36;0.50;99.90
2897;DHT22;1458;49.728;9.228;2023-02-11T06:52:04;0.60;99.90
2897;DHT22;1458;49.728;9.228;2023-02-11T06:54:32;0.50;99.90
2897;DHT22;1458;49.728;9.228;2023-02-11T06:57:00;0.60;99.90
2897;DHT22;1458;49.728;9.228;2023-02-11T06:59:28;0.60;99.90
2897;DHT22;1458;49.728;9.228;2023-02-11T07:01:55;0.60;99.90
2897;DHT22;1458;49.728;9.228;2023-02-11T07:04:22;0.50;99.90
2897;DHT22;1458;49.728;9.228;2023-02-11T07:06:50;0.60;99.90
2897;DHT22;1458;49.728;9.228;2023-02-11T07:09:17;0.60;99.90
2897;DHT22;1458;49.728;9.228;2023-02-11T07:11:44;0.60;99.90
2897;DHT22;1458;49.728;9.228;2023-02-11T07:14:13;0.70;99.90
2897;DHT22;1458;49.728;9.228;2023-02-11T07:16:40;0.80;99.90
2897;DHT22;1458;49.728;9.228;2023-02-11T07:19:08;0.80;99.90
2897;DHT22;1458;49.728;9.228;2023-02-11T07:21:35;1.00;99.90
2897;DHT22;1458;49.728;9.228;2023-02-11T07:24:06;1.30;99.90
2897;DHT22;1458;49.728;9.228;2023-02-11T07:26:33;1.40;99.90
2897;DHT22;1458;49.728;9.228;2023-02-11T07:29:01;1.40;99.90
2897;DHT22;1458;49.728;9.228;2023-02-11T07:31:30;1.30;99.90
2897;DHT22;1458;49.728;9.228;2023-02-11T07:33:59;1.30;99.90
2897;DHT22;1458;49.728;9.228;2023-02-11T07:36:28;1.40;99.90
2897;DHT22;1458;49.728;9.228;2023-02-11T07:38:56;1.50;99.90
2897;DHT22;1458;49.728;9.228;2023-02-11T07:41:43;1.30;99.90
2897;DHT22;1458;49.728;9.228;2023-02-11T07:44:30;1.10;99.90
2897;DHT22;1458;49.728;9.228;2023-02-11T07:46:59;1.20;99.90
2897;DHT22;1458;49.728;9.228;2023-02-11T07:49:26;1.30;99.90
2897;DHT22;1458;49.728;9.228;2023-02-11T07:51:54;1.20;99.90
2897;DHT22;1458;49.728;9.228;2023-02-11T07:54:21;1.40;99.90
2897;DHT22;1458;49.728;9.228;2023-02-11T07:56:49;1.50;99.90
2897;DHT22;1458;49.728;9.228;2023-02-11T07:59:16;1.60;99.90
2897;DHT22;1458;49.728;9.228;2023-02-11T08:01:43;1.70;99.90
2897;DHT22;1458;49.728;9.228;2023-02-11T08:05:04;1.90;99.90
2897;DHT22;1458;49.728;9.228;2023-02-11T08:07:32;1.80;99.90
2897;DHT22;1458;49.728;9.228;2023-02-11T08:09:59;1.60;99.90
2897;DHT22;1458;49.728;9.228;2023-02-11T08:12:26;1.80;99.90
2897;DHT22;1458;49.728;9.228;2023-02-11T08:14:54;1.80;99.90
2897;DHT22;1458;49.728;9.228;2023-02-11T08:17:21;1.70;99.90
2897;DHT22;1458;49.728;9.228;2023-02-11T08:19:49;1.80;99.90
2897;DHT22;1458;49.728;9.228;2023-02-11T08:22:19;2.00;99.90
2897;DHT22;1458;49.728;9.228;2023-02-11T08:24:46;2.10;99.90
2897;DHT22;1458;49.728;9.228;2023-02-11T08:27:13;2.00;99.90
2897;DHT22;1458;49.728;9.228;2023-02-11T08:29:41;2.20;99.90
2897;DHT22;1458;49.728;9.228;2023-02-11T08:32:08;2.20;99.90
2897;DHT22;1458;49.728;9.228;2023-02-11T08:34:35;2.20;99.90
2897;DHT22;1458;49.728;9.228;2023-02-11T08:37:03;2.20;99.90
2897;DHT22;1458;49.728;9.228;2023-02-11T08:39:31;2.30;99.90
2897;DHT22;1458;49.728;9.228;2023-02-11T08:41:59;2.30;99.90
2897;DHT22;1458;49.728;9.228;2023-02-11T08:44:26;2.60;99.90
2897;DHT22;1458;49.728;9.228;2023-02-11T08:46:54;2.60;99.90
2897;DHT22;1458;49.728;9.228;2023-02-11T08:49:22;2.70;99.90
2897;DHT22;1458;49.728;9.228;2023-02-11T08:51:49;3.00;99.90
2897;DHT22;1458;49.728;9.228;2023-02-11T08:54:17;3.10;99.90
2897;DHT22;1458;49.728;9.228;2023-02-11T08:56:50;3.30;99.90
2897;DHT22;1458;49.728;9.228;2023-02-11T08:59:17;3.30;99.90
2897;DHT22;1458;49.728;9.228;2023-02-11T09:01:45;3.70;99.90
2897;DHT22;1458;49.728;9.228;2023-02-11T09:04:13;4.10;99.90
2897;DHT22;1458;49.728;9.228;2023-02-11T09:06:40;4.20;99.90
2897;DHT22;1458;49.728;9.228;2023-02-11T09:09:10;4.70;99.90
2897;DHT22;1458;49.728;9.228;2023-02-11T09:11:39;5.00;99.90
2897;DHT22;1458;49.728;9.228;2023-02-11T09:14:15;5.20;99.90
2897;DHT22;1458;49.728;9.228;2023-02-11T09:16:44;5.20;99.30
2897;DHT22;1458;49.728;9.228;2023-02-11T09:19:11;5.30;99.20
2897;DHT22;1458;49.728;9.228;2023-02-11T09:21:39;5.30;99.50
2897;DHT22;1458;49.728;9.228;2023-02-11T09:24:06;5.30;99.70
2897;DHT22;1458;49.728;9.228;2023-02-11T09:26:35;5.60;98.80
2897;DHT22;1458;49.728;9.228;2023-02-11T09:29:03;5.80;99.20
2897;DHT22;1458;49.728;9.228;2023-02-11T09:31:34;6.10;98.40
2897;DHT22;1458;49.728;9.228;2023-02-11T09:34:03;6.40;97.30
2897;DHT22;1458;49.728;9.228;2023-02-11T09:36:32;6.80;97.80
2897;DHT22;1458;49.728;9.228;2023-02-11T09:39:03;6.80;95.80
2897;DHT22;1458;49.728;9.228;2023-02-11T09:41:42;6.90;94.90
2897;DHT22;1458;49.728;9.228;2023-02-11T09:44:22;7.00;94.10
2897;DHT22;1458;49.728;9.228;2023-02-11T09:46:55;7.10;94.20
2897;DHT22;1458;49.728;9.228;2023-02-11T09:49:31;7.70;93.10
2897;DHT22;1458;49.728;9.228;2023-02-11T09:52:04;7.90;92.70
2897;DHT22;1458;49.728;9.228;2023-02-11T09:54:36;8.20;91.80
2897;DHT22;1458;49.728;9.228;2023-02-11T09:57:08;8.10;90.80
2897;DHT22;1458;49.728;9.228;2023-02-11T09:59:36;8.20;91.40
2897;DHT22;1458;49.728;9.228;2023-02-11T10:02:10;8.00;90.80
2897;DHT22;1458;49.728;9.228;2023-02-11T10:04:56;8.00;91.00
2897;DHT22;1458;49.728;9.228;2023-02-11T10:07:36;7.90;91.80
2897;DHT22;1458;49.728;9.228;2023-02-11T10:10:14;8.10;92.10
2897;DHT22;1458;49.728;9.228;2023-02-11T10:12:57;8.40;90.50
2897;DHT22;1458;49.728;9.228;2023-02-11T10:15:38;8.40;89.40
2897;DHT22;1458;49.728;9.228;2023-02-11T10:21:18;8.00;90.40
2897;DHT22;1458;49.728;9.228;2023-02-11T10:23:56;8.00;90.30
2897;DHT22;1458;49.728;9.228;2023-02-11T10:26:29;8.00;90.30
2897;DHT22;1458;49.728;9.228;2023-02-11T10:29:00;8.10;90.50
2897;DHT22;1458;49.728;9.228;2023-02-11T10:31:36;8.10;90.30
2897;DHT22;1458;49.728;9.228;2023-02-11T10:34:10;8.00;90.30
2897;DHT22;1458;49.728;9.228;2023-02-11T10:36:41;8.00;89.90
2897;DHT22;1458;49.728;9.228;2023-02-11T10:39:12;7.70;90.50
2897;DHT22;1458;49.728;9.228;2023-02-11T10:41:43;7.60;91.20
2897;DHT22;1458;49.728;9.228;2023-02-11T10:44:22;7.50;91.20
2897;DHT22;1458;49.728;9.228;2023-02-11T10:46:58;7.60;90.90
2897;DHT22;1458;49.728;9.228;2023-02-11T10:49:55;7.80;91.30
2897;DHT22;1458;49.728;9.228;2023-02-11T10:52:29;8.10;90.90
2897;DHT22;1458;49.728;9.228;2023-02-11T10:54:59;8.40;90.00
2897;DHT22;1458;49.728;9.228;2023-02-11T10:57:32;8.20;88.70
2897;DHT22;1458;49.728;9.228;2023-02-11T11:00:18;8.10;89.20
2897;DHT22;1458;49.728;9.228;2023-02-11T11:02:54;8.00;89.50
2897;DHT22;1458;49.728;9.228;2023-02-11T11:05:28;7.90;89.60
2897;DHT22;1458;49.728;9.228;2023-02-11T11:07:59;7.90;89.00
2897;DHT22;1458;49.728;9.228;2023-02-11T11:11:00;7.80;90.00
2897;DHT22;1458;49.728;9.228;2023-02-11T11:13:31;7.80;89.00
2897;DHT22;1458;49.728;9.228;2023-02-11T11:16:17;7.80;89.60
2897;DHT22;1458;49.728;9.228;2023-02-11T11:18:51;8.00;89.30
2897;DHT22;1458;49.728;9.228;2023-02-11T11:21:25;8.10;89.60
2897;DHT22;1458;49.728;9.228;2023-02-11T11:23:59;8.10;90.00
2897;DHT22;1458;49.728;9.228;2023-02-11T11:26:38;8.40;88.40
2897;DHT22;1458;49.728;9.228;2023-02-11T11:29:11;8.70;88.00
2897;DHT22;1458;49.728;9.228;2023-02-11T11:31:46;8.80;85.70
2897;DHT22;1458;49.728;9.228;2023-02-11T11:34:22;8.70;87.40
2897;DHT22;1458;49.728;9.228;2023-02-11T11:36:55;8.60;86.00
2897;DHT22;1458;49.728;9.228;2023-02-11T11:39:25;8.40;86.70
2897;DHT22;1458;49.728;9.228;2023-02-11T11:41:56;8.30;86.40
2897;DHT22;1458;49.728;9.228;2023-02-11T11:44:28;8.10;87.60
2897;DHT22;1458;49.728;9.228;2023-02-11T11:47:23;8.10;88.60
2897;DHT22;1458;49.728;9.228;2023-02-11T11:50:10;8.10;88.30
2897;DHT22;1458;49.728;9.228;2023-02-11T11:52:51;8.10;89.20
2897;DHT22;1458;49.728;9.228;2023-02-11T11:55:25;8.20;87.70
2897;DHT22;1458;49.728;9.228;2023-02-11T11:57:54;8.20;88.30
2897;DHT22;1458;49.728;9.228;2023-02-11T12:00:27;8.30;88.30
2897;DHT22;1458;49.728;9.228;2023-02-11T12:03:31;8.40;88.00
2897;DHT22;1458;49.728;9.228;2023-02-11T12:06:40;8.30;87.50
2897;DHT22;1458;49.728;9.228;2023-02-11T12:09:22;8.30;86.90
2897;DHT22;1458;49.728;9.228;2023-02-11T12:12:05;8.20;85.60
2897;DHT22;1458;49.728;9.228;2023-02-11T12:14:44;8.20;85.70
2897;DHT22;1458;49.728;9.228;2023-02-11T12:17:30;8.20;87.40
2897;DHT22;1458;49.728;9.228;2023-02-11T12:20:18;8.20;87.10
2897;DHT22;1458;49.728;9.228;2023-02-11T12:22:59;8.40;86.90
2897;DHT22;1458;49.728;9.228;2023-02-11T12:25:40;8.40;87.00
2897;DHT22;1458;49.728;9.228;2023-02-11T12:28:23;8.50;86.30
2897;DHT22;1458;49.728;9.228;2023-02-11T12:31:08;8.40;86.70
2897;DHT22;1458;49.728;9.228;2023-02-11T12:34:11;8.30;85.40
2897;DHT22;1458;49.728;9.228;2023-02-11T12:36:56;8.20;85.50
2897;DHT22;1458;49.728;9.228;2023-02-11T12:39:34;8.00;87.30
2897;DHT22;1458;49.728;9.228;2023-02-11T12:45:41;7.80;89.90
2897;DHT22;1458;49.728;9.228;2023-02-11T12:48:25;7.60;89.90
2897;DHT22;1458;49.728;9.228;2023-02-11T12:51:09;7.60;89.60
2897;DHT22;1458;49.728;9.228;2023-02-11T12:53:59;7.50;89.90
2897;DHT22;1458;49.728;9.228;2023-02-11T12:56:41;7.60;90.30
2897;DHT22;1458;49.728;9.228;2023-02-11T12:59:17;7.70;90.90
2897;DHT22;1458;49.728;9.228;2023-02-11T13:01:55;7.70;90.50
2897;DHT22;1458;49.728;9.228;2023-02-11T13:04:27;7.70;90.30
2897;DHT22;1458;49.728;9.228;2023-02-11T13:07:02;7.70;90.10
2897;DHT22;1458;49.728;9.228;2023-02-11T13:09:37;7.60;90.30
2897;DHT22;1458;49.728;9.228;2023-02-11T13:12:09;7.70;90.50
2897;DHT22;1458;49.728;9.228;2023-02-11T13:15:02;7.80;90.30
2897;DHT22;1458;49.728;9.228;2023-02-11T13:17:37;7.70;90.80
2897;DHT22;1458;49.728;9.228;2023-02-11T13:20:19;7.80;90.30
2897;DHT22;1458;49.728;9.228;2023-02-11T13:22:57;7.80;90.90
2897;DHT22;1458;49.728;9.228;2023-02-11T13:25:32;7.80;91.70
2897;DHT22;1458;49.728;9.228;2023-02-11T13:28:22;7.80;90.80
2897;DHT22;1458;49.728;9.228;2023-02-11T13:30:55;7.80;91.10
2897;DHT22;1458;49.728;9.228;2023-02-11T13:33:30;7.90;91.00
2897;DHT22;1458;49.728;9.228;2023-02-11T13:36:26;7.90;90.70
2897;DHT22;1458;49.728;9.228;2023-02-11T13:39:00;8.00;91.70
2897;DHT22;1458;49.728;9.228;2023-02-11T13:41:34;8.00;91.20
2897;DHT22;1458;49.728;9.228;2023-02-11T13:44:24;8.10;90.10
2897;DHT22;1458;49.728;9.228;2023-02-11T13:46:59;8.20;90.50
2897;DHT22;1458;49.728;9.228;2023-02-11T13:49:34;8.00;90.90
2897;DHT22;1458;49.728;9.228;2023-02-11T13:52:17;8.10;91.00
2897;DHT22;1458;49.728;9.228;2023-02-11T13:54:50;8.10;91.00
2897;DHT22;1458;49.728;9.228;2023-02-11T13:57:30;8.10;90.70
2897;DHT22;1458;49.728;9.228;2023-02-11T14:00:05;8.10;90.50
2897;DHT22;1458;49.728;9.228;2023-02-11T14:03:22;7.90;91.10
2897;DHT22;1458;49.728;9.228;2023-02-11T14:06:18;7.80;92.00
2897;DHT22;1458;49.728;9.228;2023-02-11T14:09:33;7.60;91.90
2897;DHT22;1458;49.728;9.228;2023-02-11T14:12:32;7.60;92.10
2897;DHT22;1458;49.728;9.228;2023-02-11T14:15:20;7.40;92.60
2897;DHT22;1458;49.728;9.228;2023-02-11T14:17:51;7.50;93.30
2897;DHT22;1458;49.728;9.228;2023-02-11T14:20:41;7.60;92.90
2897;DHT22;1458;49.728;9.228;2023-02-11T14:23:22;7.70;92.90
2897;DHT22;1458;49.728;9.228;2023-02-11T14:26:00;7.70;92.80
2897;DHT22;1458;49.728;9.228;2023-02-11T14:28:35;7.60;92.50
2897;DHT22;1458;49.728;9.228;2023-02-11T14:31:07;7.60;92.70
2897;DHT22;1458;49.728;9.228;2023-02-11T14:36:58;7.70;92.80
2897;DHT22;1458;49.728;9.228;2023-02-11T14:39:45;7.60;92.60
2897;DHT22;1458;49.728;9.228;2023-02-11T14:42:21;7.60;92.90
2897;DHT22;1458;49.728;9.228;2023-02-11T14:44:53;7.50;93.40
2897;DHT22;1458;49.728;9.228;2023-02-11T14:47:24;7.40;93.30
2897;DHT22;1458;49.728;9.228;2023-02-11T14:49:53;7.40;93.60
2897;DHT22;1458;49.728;9.228;2023-02-11T14:52:26;7.30;94.00
2897;DHT22;1458;49.728;9.228;2023-02-11T14:55:04;7.40;94.20
2897;DHT22;1458;49.728;9.228;2023-02-11T14:57:38;7.40;94.40
2897;DHT22;1458;49.728;9.228;2023-02-11T15:00:16;7.50;94.80
2897;DHT22;1458;49.728;9.228;2023-02-11T15:02:45;7.50;94.40
2897;DHT22;1458;49.728;9.228;2023-02-11T15:05:15;7.50;94.60
2897;DHT22;1458;49.728;9.228;2023-02-11T15:07:48;7.60;94.70
2897;DHT22;1458;49.728;9.228;2023-02-11T15:10:26;7.70;94.50
2897;DHT22;1458;49.728;9.228;2023-02-11T15:12:57;7.60;95.00
2897;DHT22;1458;49.728;9.228;2023-02-11T15:15:26;7.60;94.50
2897;DHT22;1458;49.728;9.228;2023-02-11T15:17:58;7.50;94.80
2897;DHT22;1458;49.728;9.228;2023-02-11T15:20:29;7.50;94.90
2897;DHT22;1458;49.728;9.228;2023-02-11T15:23:02;7.40;95.10
2897;DHT22;1458;49.728;9.228;2023-02-11T15:25:32;7.40;95.20
2897;DHT22;1458;49.728;9.228;2023-02-11T15:28:00;7.30;95.10
2897;DHT22;1458;49.728;9.228;2023-02-11T15:30:37;7.30;95.60
2897;DHT22;1458;49.728;9.228;2023-02-11T15:33:04;7.30;96.60
2897;DHT22;1458;49.728;9.228;2023-02-11T15:35:37;7.20;96.20
2897;DHT22;1458;49.728;9.228;2023-02-11T15:38:08;7.30;95.90
2897;DHT22;1458;49.728;9.228;2023-02-11T15:40:39;7.20;96.60
2897;DHT22;1458;49.728;9.228;2023-02-11T15:43:11;7.20;96.20
2897;DHT22;1458;49.728;9.228;2023-02-11T15:45:43;7.10;96.50
2897;DHT22;1458;49.728;9.228;2023-02-11T15:48:42;7.20;96.00
2897;DHT22;1458;49.728;9.228;2023-02-11T15:51:19;7.20;96.10
2897;DHT22;1458;49.728;9.228;2023-02-11T15:53:51;7.10;96.20
2897;DHT22;1458;49.728;9.228;2023-02-11T15:56:23;7.00;96.50
2897;DHT22;1458;49.728;9.228;2023-02-11T15:58:57;7.00;96.50
2897;DHT22;1458;49.728;9.228;2023-02-11T16:01:29;7.10;96.90
2897;DHT22;1458;49.728;9.228;2023-02-11T16:03:57;7.00;96.70
2897;DHT22;1458;49.728;9.228;2023-02-11T16:06:28;7.00;96.80
2897;DHT22;1458;49.728;9.228;2023-02-11T16:09:32;7.00;97.20
2897;DHT22;1458;49.728;9.228;2023-02-11T16:12:03;6.90;97.30
2897;DHT22;1458;49.728;9.228;2023-02-11T16:14:33;6.90;97.60
2897;DHT22;1458;49.728;9.228;2023-02-11T16:17:06;6.80;98.00
2897;DHT22;1458;49.728;9.228;2023-02-11T16:19:40;6.80;99.00
2897;DHT22;1458;49.728;9.228;2023-02-11T16:22:13;6.80;98.70
2897;DHT22;1458;49.728;9.228;2023-02-11T16:24:46;6.70;99.10
2897;DHT22;1458;49.728;9.228;2023-02-11T16:27:20;6.80;99.00
2897;DHT22;1458;49.728;9.228;2023-02-11T16:29:49;6.70;98.80
2897;DHT22;1458;49.728;9.228;2023-02-11T16:32:18;6.70;98.90
2897;DHT22;1458;49.728;9.228;2023-02-11T16:34:48;6.70;99.40
2897;DHT22;1458;49.728;9.228;2023-02-11T16:37:15;6.70;99.40
2897;DHT22;1458;49.728;9.228;2023-02-11T16:39:44;6.60;99.60
2897;DHT22;1458;49.728;9.228;2023-02-11T16:42:12;6.60;99.70
2897;DHT22;1458;49.728;9.228;2023-02-11T16:44:39;6.60;99.90
2897;DHT22;1458;49.728;9.228;2023-02-11T16:47:23;6.60;99.90
2897;DHT22;1458;49.728;9.228;2023-02-11T16:49:52;6.50;99.90
2897;DHT22;1458;49.728;9.228;2023-02-11T16:52:20;6.50;99.90
2897;DHT22;1458;49.728;9.228;2023-02-11T16:54:49;6.50;99.90
2897;DHT22;1458;49.728;9.228;2023-02-11T16:57:19;6.40;99.90
2897;DHT22;1458;49.728;9.228;2023-02-11T16:59:47;6.40;99.90
2897;DHT22;1458;49.728;9.228;2023-02-11T17:02:19;6.40;99.90
2897;DHT22;1458;49.728;9.228;2023-02-11T17:04:48;6.30;99.90
2897;DHT22;1458;49.728;9.228;2023-02-11T17:07:16;6.30;99.90
2897;DHT22;1458;49.728;9.228;2023-02-11T17:09:43;6.30;99.90
2897;DHT22;1458;49.728;9.228;2023-02-11T17:12:12;6.30;99.90
2897;DHT22;1458;49.728;9.228;2023-02-11T17:14:39;6.40;99.90